Time;durP1;ratioP1;P1;durP2;ratioP2;P2;SDS_P1;SDS_P2;PMS_P1;PMS_P2;Temp;Humidity;BMP_temperature;BMP_pressure;BME280_temperature;BME280_humidity;BME280_pressure;Samples;Min_cycle;Max_cycle;Signal;HPM_P1;HPM_P2
2020/12/24 00:00:28;;;;;;;4.97;0.70;;;;;;;10.17;59.48;100525.75;5026141;28;20037;-70
2020/12/24 00:02:54;;;;;;;1.20;0.20;;;;;;;10.19;59.39;100524.00;5035240;28;20063;-70
2020/12/24 00:05:19;;;;;;;3.30;0.50;;;;;;;10.17;59.63;100515.44;5035970;28;20036;-70
2020/12/24 00:07:45;;;;;;;1.25;0.30;;;;;;;10.25;59.48;100523.06;5028853;28;20036;-70
2020/12/24 00:10:10;;;;;;;2.45;0.30;;;;;;;10.22;59.54;100519.66;5041770;28;20036;-70
2020/12/24 00:12:36;;;;;;;6.25;0.30;;;;;;;10.52;58.84;100518.38;5019667;28;20037;-70
2020/12/24 00:15:05;;;;;;;10.43;0.35;;;;;;;10.37;59.09;100516.88;5027637;28;20080;-70
2020/12/24 00:17:30;;;;;;;6.93;0.20;;;;;;;10.25;59.18;100519.63;5038514;28;20037;-70
2020/12/24 00:19:56;;;;;;;10.68;0.30;;;;;;;9.91;60.10;100513.25;5035242;28;20390;-70
2020/12/24 00:22:21;;;;;;;0.68;0.20;;;;;;;10.02;60.04;100510.47;5039319;28;20087;-70
2020/12/24 00:24:47;;;;;;;4.43;0.40;;;;;;;10.13;59.86;100512.91;5013842;28;20032;-70
2020/12/24 00:27:12;;;;;;;2.17;0.30;;;;;;;10.21;59.44;100516.25;5031144;28;20057;-70
2020/12/24 00:29:39;;;;;;;3.97;0.20;;;;;;;10.32;58.96;100514.38;5016904;28;20119;-70
2020/12/24 00:32:05;;;;;;;5.28;0.30;;;;;;;10.13;59.89;100518.06;5019266;28;20306;-70
2020/12/24 00:34:31;;;;;;;2.03;0.50;;;;;;;10.02;59.62;100519.97;5035128;28;20033;-70
2020/12/24 00:36:56;;;;;;;0.80;0.10;;;;;;;10.29;59.01;100510.97;5029780;28;20116;-70
2020/12/24 00:39:22;;;;;;;3.33;0.20;;;;;;;10.11;59.44;100514.66;5037285;28;20033;-70
2020/12/24 00:41:48;;;;;;;1.30;0.25;;;;;;;10.14;59.28;100515.47;5044386;28;20053;-70
2020/12/24 00:44:14;;;;;;;4.75;0.13;;;;;;;10.21;58.96;100516.25;5031963;28;20040;-70
2020/12/24 00:46:39;;;;;;;5.90;0.38;;;;;;;10.34;58.30;100514.38;5013101;28;20383;-70
2020/12/24 00:49:05;;;;;;;1.50;0.40;;;;;;;10.24;58.87;100510.19;5039209;28;20064;-70
2020/12/24 00:51:31;;;;;;;1.33;0.20;;;;;;;9.84;59.78;100506.44;5032353;28;20033;-70
2020/12/24 00:53:57;;;;;;;3.47;0.30;;;;;;;9.97;59.33;100507.13;5017096;28;20468;-70
2020/12/24 00:56:23;;;;;;;1.67;0.50;;;;;;;10.08;59.18;100510.41;5032785;28;20145;-70
2020/12/24 00:59:02;;;;;;;1.63;0.05;;;;;;;9.56;60.07;100495.63;5027222;28;20033;-69
2020/12/24 01:01:27;;;;;;;0.98;0.00;;;;;;;9.40;60.97;100499.25;5031407;28;20040;-69
2020/12/24 01:03:53;;;;;;;1.98;0.10;;;;;;;9.85;59.36;100502.16;5036478;28;20562;-70
2020/12/24 01:06:18;;;;;;;3.90;0.45;;;;;;;9.80;59.90;100501.34;5033131;28;20030;-70
2020/12/24 01:08:44;;;;;;;1.85;0.20;;;;;;;10.12;58.87;100500.88;5018797;28;20025;-70
2020/12/24 01:11:10;;;;;;;2.53;0.32;;;;;;;9.86;59.81;100498.69;5026594;28;20025;-70
2020/12/24 01:13:36;;;;;;;2.72;0.10;;;;;;;9.82;59.74;100503.00;5028945;28;20121;-70
2020/12/24 01:16:01;;;;;;;0.40;0.10;;;;;;;10.26;58.55;100503.25;5030235;28;20045;-70
2020/12/24 01:18:27;;;;;;;3.78;0.17;;;;;;;10.25;58.67;100493.78;5031655;28;20210;-70
2020/12/24 01:20:52;;;;;;;2.55;0.20;;;;;;;10.07;58.86;100500.09;5033113;28;20037;-70
2020/12/24 01:23:18;;;;;;;2.45;0.30;;;;;;;10.06;59.02;100504.41;5022141;28;20079;-70
2020/12/24 01:25:44;;;;;;;2.08;0.20;;;;;;;10.09;58.70;100504.38;5029667;28;20049;-70
2020/12/24 01:28:09;;;;;;;6.18;0.20;;;;;;;10.18;58.38;100495.63;5028386;28;20486;-70
2020/12/24 01:30:35;;;;;;;0.68;0.20;;;;;;;10.05;58.65;100500.13;5047385;28;20515;-70
2020/12/24 01:33:00;;;;;;;6.28;0.90;;;;;;;9.76;59.09;100491.06;5032339;28;20100;-70
2020/12/24 01:35:26;;;;;;;3.63;0.15;;;;;;;9.90;58.84;100495.19;5041362;28;20045;-69
2020/12/24 01:37:51;;;;;;;4.03;1.05;;;;;;;9.70;59.48;100492.88;5030864;28;20056;-69
2020/12/24 01:40:17;;;;;;;0.35;0.10;;;;;;;9.90;58.86;100490.03;5040776;28;20025;-70
2020/12/24 01:42:43;;;;;;;2.88;0.17;;;;;;;10.07;58.32;100500.97;5044851;28;20041;-71
2020/12/24 01:45:08;;;;;;;2.55;0.10;;;;;;;10.34;57.92;100501.44;5031194;28;20499;-69
2020/12/24 01:47:34;;;;;;;2.42;0.00;;;;;;;10.26;57.76;100491.19;5035098;28;20316;-69
2020/12/24 01:49:59;;;;;;;4.75;0.13;;;;;;;10.09;57.72;100496.63;5038633;28;20049;-69
2020/12/24 01:52:33;;;;;;;1.88;0.10;;;;;;;10.31;57.13;100499.75;5033978;28;20037;-70
2020/12/24 01:55:01;;;;;;;0.47;0.20;;;;;;;9.97;57.98;100496.78;5034615;28;20472;-69
2020/12/24 01:57:27;;;;;;;3.25;0.20;;;;;;;10.26;57.27;100496.34;5032015;28;20033;-70
2020/12/24 01:59:54;;;;;;;0.70;0.03;;;;;;;10.28;56.75;100499.78;5036082;28;20041;-69
2020/12/24 02:02:20;;;;;;;0.85;0.10;;;;;;;10.08;57.13;100507.81;5012755;28;20040;-69
2020/12/24 02:04:45;;;;;;;0.52;0.10;;;;;;;10.23;56.33;100493.84;5032984;28;20123;-69
2020/12/24 02:07:13;;;;;;;3.58;0.10;;;;;;;9.72;57.05;100496.28;5034123;28;20033;-70
2020/12/24 02:09:39;;;;;;;3.58;0.20;;;;;;;10.12;55.65;100512.06;5033359;28;20033;-69
2020/12/24 02:12:05;;;;;;;0.35;0.00;;;;;;;9.99;55.63;100505.38;5037495;28;20087;-69
2020/12/24 02:14:30;;;;;;;0.70;0.10;;;;;;;9.98;55.50;100512.28;5042087;28;20060;-69
2020/12/24 02:16:56;;;;;;;1.42;0.00;;;;;;;9.84;55.67;100510.75;5035970;28;20040;-69
2020/12/24 02:19:21;;;;;;;0.65;0.00;;;;;;;10.15;54.83;100509.44;5028166;28;20128;-69
2020/12/24 02:21:47;;;;;;;2.10;0.10;;;;;;;9.82;55.77;100513.34;5016188;28;20025;-69
2020/12/24 02:24:12;;;;;;;3.58;0.10;;;;;;;10.05;55.02;100504.44;5026868;28;20044;-69
2020/12/24 02:26:38;;;;;;;0.32;0.10;;;;;;;10.16;54.76;100497.38;5033145;28;20340;-69
2020/12/24 02:29:04;;;;;;;0.90;0.10;;;;;;;10.06;54.92;100508.72;5030679;28;20025;-69
2020/12/24 02:31:29;;;;;;;0.30;0.20;;;;;;;10.22;54.75;100506.75;5028685;28;20079;-71
2020/12/24 02:33:54;;;;;;;1.05;0.05;;;;;;;9.91;55.40;100507.19;5025480;28;20025;-69
2020/12/24 02:36:20;;;;;;;1.77;0.00;;;;;;;10.14;55.32;100505.16;5019089;28;20025;-69
2020/12/24 02:38:46;;;;;;;5.95;0.22;;;;;;;10.14;55.47;100510.31;5037358;28;20501;-69
2020/12/24 02:41:11;;;;;;;0.10;0.00;;;;;;;10.12;55.57;100513.81;5029367;28;20044;-69
2020/12/24 02:43:37;;;;;;;1.50;0.10;;;;;;;10.07;55.86;100511.28;5033474;28;20463;-69
2020/12/24 02:46:02;;;;;;;0.47;0.10;;;;;;;9.96;56.15;100505.44;5036189;28;20633;-69
2020/12/24 02:48:28;;;;;;;1.00;0.10;;;;;;;9.96;55.91;100502.84;5035751;28;20220;-70
2020/12/24 02:50:53;;;;;;;0.45;0.00;;;;;;;10.05;55.62;100515.63;5035355;28;20060;-68
2020/12/24 02:53:19;;;;;;;2.20;0.00;;;;;;;10.19;55.25;100508.50;5024861;28;20149;-69
2020/12/24 02:55:45;;;;;;;1.35;0.10;;;;;;;10.31;54.81;100506.66;5030188;28;20029;-69
2020/12/24 02:58:10;;;;;;;2.58;0.20;;;;;;;10.28;54.96;100517.00;5033451;28;20029;-70
2020/12/24 03:00:36;;;;;;;1.25;0.10;;;;;;;10.42;54.75;100520.25;5027828;28;20095;-70
2020/12/24 03:03:02;;;;;;;1.48;0.00;;;;;;;10.47;53.95;100515.00;5037568;28;20037;-69
2020/12/24 03:05:27;;;;;;;0.40;0.00;;;;;;;10.39;54.30;100509.97;5038513;28;20545;-69
2020/12/24 03:07:53;;;;;;;0.52;0.20;;;;;;;10.17;54.52;100520.59;5029557;28;20039;-69
2020/12/24 03:10:19;;;;;;;2.33;0.10;;;;;;;10.26;54.18;100513.59;5033681;28;20033;-70
2020/12/24 03:12:44;;;;;;;2.83;0.10;;;;;;;10.18;54.20;100519.72;5029468;28;20037;-69
2020/12/24 03:15:11;;;;;;;5.88;0.40;;;;;;;10.34;53.88;100511.78;5027367;28;20056;-70
2020/12/24 03:17:37;;;;;;;0.50;0.10;;;;;;;10.28;54.02;100512.69;5019768;28;20022;-70
2020/12/24 03:20:03;;;;;;;0.00;0.00;;;;;;;10.26;54.21;100513.59;5022854;28;20033;-70
2020/12/24 03:22:28;;;;;;;1.63;0.00;;;;;;;10.24;54.14;100520.50;5033365;28;20024;-70
2020/12/24 03:24:54;;;;;;;2.50;0.10;;;;;;;10.34;54.06;100511.78;5030372;28;20036;-69
2020/12/24 03:27:19;;;;;;;2.30;0.35;;;;;;;10.51;53.60;100514.06;5030674;28;20049;-70
2020/12/24 03:29:44;;;;;;;0.30;0.00;;;;;;;10.40;53.80;100516.84;5013642;28;20032;-69
2020/12/24 03:32:10;;;;;;;0.68;0.00;;;;;;;10.50;53.56;100513.22;5033096;28;20041;-69
2020/12/24 03:34:35;;;;;;;3.70;0.10;;;;;;;10.53;53.56;100512.31;5025301;28;20076;-73
2020/12/24 03:37:01;;;;;;;2.30;0.63;;;;;;;10.58;53.54;100511.38;5027182;28;20160;-69
2020/12/24 03:39:26;;;;;;;0.10;0.00;;;;;;;10.63;53.57;100513.00;5043337;28;20048;-69
2020/12/24 03:41:52;;;;;;;3.40;0.30;;;;;;;10.67;53.49;100512.09;5029434;28;20053;-70
2020/12/24 03:44:17;;;;;;;0.93;0.10;;;;;;;10.70;53.44;100514.63;5016283;28;20534;-69
2020/12/24 03:46:43;;;;;;;4.70;0.20;;;;;;;10.69;53.60;100518.94;5031811;28;21653;-70
2020/12/24 03:49:08;;;;;;;3.88;0.00;;;;;;;10.63;53.77;100513.88;5026047;28;20029;-69
2020/12/24 03:51:34;;;;;;;0.63;0.10;;;;;;;10.66;53.86;100519.00;5028793;28;20129;-70
2020/12/24 03:53:59;;;;;;;2.15;0.20;;;;;;;10.33;54.81;100525.56;5029640;28;20596;-70
2020/12/24 03:56:25;;;;;;;0.10;0.00;;;;;;;10.44;54.38;100526.25;5028032;28;20613;-70
2020/12/24 03:58:50;;;;;;;3.13;0.00;;;;;;;10.50;54.63;100522.72;5031069;28;20022;-70
2020/12/24 04:01:16;;;;;;;2.20;0.80;;;;;;;10.59;54.48;100526.00;5030662;28;20033;-70
2020/12/24 04:03:41;;;;;;;1.85;0.10;;;;;;;10.51;54.43;100535.59;5037081;28;20030;-69
2020/12/24 04:06:07;;;;;;;0.90;0.10;;;;;;;10.48;54.57;100532.22;5033321;28;20431;-70
2020/12/24 04:08:32;;;;;;;4.68;0.10;;;;;;;10.47;54.69;100527.91;5027091;28;20057;-70
2020/12/24 04:10:58;;;;;;;4.93;0.10;;;;;;;10.46;54.76;100527.06;5033164;28;20064;-69
2020/12/24 04:13:23;;;;;;;0.80;0.10;;;;;;;10.50;54.79;100530.47;5033791;28;20041;-70
2020/12/24 04:15:49;;;;;;;2.15;0.20;;;;;;;10.47;54.56;100533.97;5022123;28;20029;-70
2020/12/24 04:18:14;;;;;;;3.95;0.10;;;;;;;10.43;54.98;100537.47;5025085;28;20025;-70
2020/12/24 04:20:40;;;;;;;0.75;0.00;;;;;;;10.56;54.68;100544.16;5024935;28;20403;-70
2020/12/24 04:23:05;;;;;;;3.28;0.10;;;;;;;10.65;54.64;100540.56;5031490;28;20026;-70
2020/12/24 04:25:32;;;;;;;1.23;0.00;;;;;;;10.74;54.47;100543.00;5035513;28;20207;-70
2020/12/24 04:27:57;;;;;;;2.08;0.08;;;;;;;10.76;54.79;100546.41;5026139;28;20048;-70
2020/12/24 04:30:22;;;;;;;1.25;0.05;;;;;;;10.72;54.67;100544.75;5031624;28;20037;-69
2020/12/24 04:32:48;;;;;;;0.43;0.00;;;;;;;10.90;53.82;100547.91;5033364;28;20120;-70
2020/12/24 04:35:14;;;;;;;1.63;0.10;;;;;;;10.75;54.44;100549.00;5021204;28;20036;-69
2020/12/24 04:37:39;;;;;;;2.40;0.10;;;;;;;10.76;54.14;100550.69;5024880;28;20045;-70
2020/12/24 04:40:05;;;;;;;0.60;0.10;;;;;;;10.75;54.92;100549.84;5029461;28;20030;-70
2020/12/24 04:42:31;;;;;;;0.15;0.00;;;;;;;10.85;54.74;100548.00;5028464;28;20048;-70
2020/12/24 04:44:58;;;;;;;0.90;0.10;;;;;;;10.88;54.33;100555.69;5028548;28;20105;-70
2020/12/24 04:47:25;;;;;;;1.20;0.03;;;;;;;10.91;54.15;100550.44;5029122;28;20060;-70
2020/12/24 04:49:51;;;;;;;0.38;0.13;;;;;;;10.90;54.37;100547.91;5027971;28;20057;-69
2020/12/24 04:52:17;;;;;;;4.72;0.40;;;;;;;10.81;54.32;100561.84;5007491;28;20040;-70
2020/12/24 04:54:43;;;;;;;1.05;0.10;;;;;;;10.83;54.69;100559.22;5030510;28;20116;-69
2020/12/24 04:57:11;;;;;;;1.75;0.20;;;;;;;10.77;54.67;100567.94;5029414;28;20034;-70
2020/12/24 04:59:37;;;;;;;0.65;0.05;;;;;;;10.89;54.72;100567.72;5025974;28;20026;-70
2020/12/24 05:02:05;;;;;;;0.20;0.10;;;;;;;10.91;54.65;100570.28;5036020;28;20387;-70
2020/12/24 05:04:32;;;;;;;1.33;0.10;;;;;;;10.38;55.47;100570.25;5029218;28;20042;-69
2020/12/24 05:07:05;;;;;;;0.98;0.10;;;;;;;10.73;55.13;100567.13;5045781;28;20037;-69
2020/12/24 05:09:31;;;;;;;0.55;0.10;;;;;;;10.94;54.48;100565.03;5026661;28;20025;-69
2020/12/24 05:11:57;;;;;;;2.63;0.10;;;;;;;10.86;54.75;100565.19;5029465;28;20094;-69
2020/12/24 05:14:25;;;;;;;1.48;0.17;;;;;;;10.75;54.80;100567.94;5027950;28;20038;-69
2020/12/24 05:16:59;;;;;;;1.35;0.10;;;;;;;10.87;54.99;100582.41;5010782;28;20525;-69
2020/12/24 05:19:26;;;;;;;3.90;0.45;;;;;;;10.88;54.66;100570.34;5013804;28;20093;-70
2020/12/24 05:21:56;;;;;;;0.80;0.10;;;;;;;10.94;54.79;100570.22;5021188;28;20513;-71
2020/12/24 05:24:33;;;;;;;2.45;0.20;;;;;;;10.76;54.86;100579.13;5012504;28;20038;-70
2020/12/24 05:27:16;;;;;;;2.40;0.20;;;;;;;10.69;55.13;100585.28;5028344;28;20105;-70
2020/12/24 05:29:44;;;;;;;0.73;0.10;;;;;;;10.78;55.10;100580.84;5028332;28;20380;-69
2020/12/24 05:32:10;;;;;;;0.30;0.10;;;;;;;10.87;55.11;100582.41;5023278;28;20043;-70
2020/12/24 05:34:36;;;;;;;1.90;0.20;;;;;;;10.80;55.03;100578.22;5018642;28;20034;-70
2020/12/24 05:37:09;;;;;;;1.38;0.20;;;;;;;10.79;54.77;100577.38;5041837;28;20037;-69
2020/12/24 05:39:35;;;;;;;1.33;0.10;;;;;;;10.72;55.06;100583.53;5029457;28;20562;-69
2020/12/24 05:42:05;;;;;;;3.88;0.60;;;;;;;10.85;54.97;100586.78;5021422;28;20034;-70
2020/12/24 05:44:31;;;;;;;2.30;0.10;;;;;;;10.58;55.46;100583.75;5046845;28;20443;-69
2020/12/24 05:46:57;;;;;;;4.80;0.30;;;;;;;10.67;55.41;100592.22;5025269;28;20134;-69
2020/12/24 05:49:24;;;;;;;2.20;0.60;;;;;;;10.71;55.29;100589.56;5026442;28;20124;-70
2020/12/24 05:51:58;;;;;;;3.22;0.40;;;;;;;10.48;55.72;100592.50;5042640;28;20402;-69
2020/12/24 05:54:25;;;;;;;4.03;0.20;;;;;;;10.36;55.78;100587.53;5029713;28;20034;-70
2020/12/24 05:56:52;;;;;;;1.35;0.20;;;;;;;10.64;55.03;100593.13;5025894;28;20026;-69
2020/12/24 05:59:22;;;;;;;1.30;0.20;;;;;;;10.65;55.35;100599.13;5030083;28;20056;-69
2020/12/24 06:02:10;;;;;;;0.98;0.20;;;;;;;10.56;55.38;100594.97;5024735;28;20561;-69
2020/12/24 06:04:44;;;;;;;4.10;0.95;;;;;;;10.67;55.23;100605.13;5026086;28;20030;-69
2020/12/24 06:07:13;;;;;;;2.42;0.40;;;;;;;10.57;55.56;100599.28;5030059;28;20547;-69
2020/12/24 06:09:40;;;;;;;0.52;0.15;;;;;;;10.65;55.06;100601.72;5027309;28;20316;-69
2020/12/24 06:12:22;;;;;;;1.77;0.35;;;;;;;10.50;55.42;100593.34;5037120;28;20090;-69
2020/12/24 06:14:51;;;;;;;1.30;0.20;;;;;;;10.50;55.28;100600.25;5031796;28;20036;-70
2020/12/24 06:17:24;;;;;;;2.03;0.20;;;;;;;10.51;55.16;100597.63;5026338;28;20037;-69
2020/12/24 06:19:50;;;;;;;7.47;0.20;;;;;;;10.56;55.34;100601.00;5013892;28;20033;-69
2020/12/24 06:22:18;;;;;;;1.95;0.38;;;;;;;10.62;55.38;100606.94;5023964;28;20487;-69
2020/12/24 06:24:46;;;;;;;1.35;0.20;;;;;;;10.53;55.60;100606.19;5007678;28;20080;-69
2020/12/24 06:27:50;;;;;;;2.25;0.20;;;;;;;10.69;55.24;100609.41;5036357;28;20021;-70
2020/12/24 06:30:22;;;;;;;4.05;0.47;;;;;;;10.77;55.21;100619.63;5031341;28;20036;-69
2020/12/24 06:32:49;;;;;;;3.38;0.63;;;;;;;10.72;55.10;100611.97;5036250;28;20025;-69
2020/12/24 06:35:38;;;;;;;6.80;0.85;;;;;;;10.54;55.54;100607.94;5034612;28;20056;-70
2020/12/24 06:38:05;;;;;;;1.08;0.95;;;;;;;10.63;55.56;100616.41;5029413;28;20498;-69
2020/12/24 06:40:33;;;;;;;5.13;0.30;;;;;;;10.58;55.48;100619.06;5039315;28;20037;-70
2020/12/24 06:42:59;;;;;;;2.53;0.30;;;;;;;10.58;55.25;100614.75;5030785;28;20034;-70
2020/12/24 06:45:27;;;;;;;4.60;0.55;;;;;;;10.58;55.39;100619.06;5031025;28;20048;-70
2020/12/24 06:48:12;;;;;;;1.05;0.30;;;;;;;10.55;55.06;100625.13;5008762;28;20086;-69
2020/12/24 06:50:39;;;;;;;4.28;0.30;;;;;;;10.53;55.44;100626.88;5029018;28;20040;-70
2020/12/24 06:53:33;;;;;;;0.88;0.30;;;;;;;10.58;55.33;100634.56;5013371;28;20487;-69
2020/12/24 06:56:17;;;;;;;1.33;0.40;;;;;;;10.56;55.52;100637.19;5031256;28;20018;-70
2020/12/24 06:58:46;;;;;;;2.47;0.35;;;;;;;10.33;56.17;100644.41;5026671;28;20122;-70
2020/12/24 07:01:19;;;;;;;1.67;0.63;;;;;;;10.57;55.80;100649.22;5012036;28;20183;-70
2020/12/24 07:03:45;;;;;;;1.95;0.32;;;;;;;10.68;55.40;100650.81;5009314;28;20033;-70
2020/12/24 07:06:11;;;;;;;1.20;0.25;;;;;;;10.62;55.37;100651.72;5022883;28;20029;-70
2020/12/24 07:08:44;;;;;;;1.20;0.30;;;;;;;10.21;56.59;100650.56;5025944;28;20559;-69
2020/12/24 07:11:10;;;;;;;3.00;0.32;;;;;;;10.45;55.99;100659.75;5032799;28;20065;-69
2020/12/24 07:13:40;;;;;;;3.65;0.47;;;;;;;10.54;55.48;100662.19;5026778;28;20076;-69
2020/12/24 07:16:13;;;;;;;4.40;0.68;;;;;;;10.58;55.74;100669.03;5016213;28;20050;-70
2020/12/24 07:18:40;;;;;;;3.65;0.50;;;;;;;10.68;55.66;100671.47;5030111;28;20040;-71
2020/12/24 07:21:08;;;;;;;1.17;0.30;;;;;;;10.79;55.85;100667.84;5027184;28;20036;-69
2020/12/24 07:23:38;;;;;;;1.08;0.30;;;;;;;10.87;55.34;100672.88;5030425;28;20033;-70
2020/12/24 07:26:07;;;;;;;2.05;0.50;;;;;;;10.81;55.20;100662.66;5022758;28;20116;-70
2020/12/24 07:28:35;;;;;;;1.55;0.25;;;;;;;10.77;55.42;100668.75;5027899;28;20121;-69
2020/12/24 07:31:08;;;;;;;2.75;0.75;;;;;;;10.82;55.36;100679.03;5023247;28;20061;-69
2020/12/24 07:33:35;;;;;;;3.83;0.70;;;;;;;10.82;55.40;100669.53;5030980;28;20089;-69
2020/12/24 07:36:06;;;;;;;4.97;0.52;;;;;;;10.78;55.04;100675.63;5029374;28;20453;-69
2020/12/24 07:38:31;;;;;;;6.63;0.60;;;;;;;10.62;54.84;100671.56;5028606;28;20086;-69
2020/12/24 07:40:57;;;;;;;2.60;0.45;;;;;;;10.53;54.92;100675.13;5023829;28;20036;-69
2020/12/24 07:43:25;;;;;;;2.92;0.68;;;;;;;10.50;55.08;100678.63;5013261;28;20108;-69
2020/12/24 07:45:51;;;;;;;3.47;0.30;;;;;;;10.43;55.10;100695.06;5026082;28;20078;-69
2020/12/24 07:48:22;;;;;;;2.60;0.70;;;;;;;10.31;55.44;100688.31;5026094;28;20026;-69
2020/12/24 07:50:49;;;;;;;3.15;0.80;;;;;;;10.33;55.07;100696.06;5010879;28;20025;-69
2020/12/24 07:53:20;;;;;;;1.75;0.57;;;;;;;10.29;55.03;100696.97;5026466;28;20112;-70
2020/12/24 07:55:46;;;;;;;2.90;0.85;;;;;;;10.26;55.23;100704.72;5022930;28;20473;-71
2020/12/24 07:58:13;;;;;;;3.13;1.35;;;;;;;10.29;55.67;100710.75;5024410;28;20041;-69
2020/12/24 08:00:39;;;;;;;5.35;0.90;;;;;;;10.38;55.62;100712.34;5040402;28;20152;-71
2020/12/24 08:03:05;;;;;;;4.28;0.82;;;;;;;10.36;55.63;100722.72;5024506;28;20176;-70
2020/12/24 08:05:30;;;;;;;2.15;0.60;;;;;;;10.52;55.70;100723.38;5025398;28;20040;-69
2020/12/24 08:07:55;;;;;;;1.75;0.57;;;;;;;10.34;56.18;100726.19;5023270;28;20033;-69
2020/12/24 08:10:21;;;;;;;2.20;0.75;;;;;;;10.46;55.61;100726.03;5021902;28;20044;-69
2020/12/24 08:12:46;;;;;;;6.80;1.17;;;;;;;10.64;55.70;100726.66;5021742;28;20111;-69
2020/12/24 08:15:19;;;;;;;4.03;0.70;;;;;;;10.68;55.72;100743.84;5011465;28;20030;-69
2020/12/24 08:17:56;;;;;;;;;;;;;;;10.79;55.69;100736.81;5021774;28;20041;-72
2020/12/24 08:20:24;;;;;;;1.65;1.05;;;;;;;10.79;55.34;100731.63;5030658;28;20384;-71
2020/12/24 08:23:17;;;;;;;4.03;0.73;;;;;;;10.94;55.32;100746.94;5019076;28;20061;-70
2020/12/24 08:25:51;;;;;;;2.05;0.47;;;;;;;11.02;55.20;100745.06;5024193;28;20029;-69
2020/12/24 08:28:17;;;;;;;7.28;1.10;;;;;;;11.08;55.42;100758.81;5020590;28;20029;-69
2020/12/24 08:30:47;;;;;;;3.40;1.60;;;;;;;11.05;55.51;100754.53;5034530;28;20116;-69
2020/12/24 08:33:14;;;;;;;8.50;2.00;;;;;;;10.92;55.78;100759.03;5032339;28;20033;-72
2020/12/24 08:35:40;;;;;;;5.45;1.38;;;;;;;10.38;57.07;100758.84;5033591;28;20121;-70
2020/12/24 08:38:24;;;;;;;4.85;0.47;;;;;;;10.90;56.47;100759.94;5032075;28;20296;-70
2020/12/24 08:40:49;;;;;;;4.80;0.32;;;;;;;11.06;55.90;100765.75;5033391;28;20499;-70
2020/12/24 08:43:15;;;;;;;6.80;0.50;;;;;;;10.98;55.86;100766.72;5032141;28;20036;-70
2020/12/24 08:45:45;;;;;;;2.15;0.55;;;;;;;11.11;55.71;100761.34;5028909;28;20033;-70
2020/12/24 08:48:33;;;;;;;3.42;1.15;;;;;;;11.27;55.09;100770.56;5039532;28;20052;-71
2020/12/24 08:50:59;;;;;;;6.65;0.40;;;;;;;11.48;54.00;100769.41;5025039;28;20049;-69
2020/12/24 08:53:28;;;;;;;6.68;0.38;;;;;;;11.43;54.02;100776.34;5024002;28;20518;-69
2020/12/24 08:55:54;;;;;;;4.35;0.47;;;;;;;11.57;53.55;100776.16;5021124;28;20486;-70
2020/12/24 08:58:19;;;;;;;4.80;0.65;;;;;;;11.60;53.39;100776.94;5025201;28;20132;-69
2020/12/24 09:00:45;;;;;;;1.77;0.68;;;;;;;11.71;53.33;100781.09;5023825;28;20105;-70
2020/12/24 09:03:40;;;;;;;12.88;2.38;;;;;;;11.66;53.30;100786.34;5023226;28;20029;-70
2020/12/24 09:06:14;;;;;;;2.45;0.22;;;;;;;11.80;52.79;100793.88;5017928;28;20069;-69
2020/12/24 09:08:40;;;;;;;6.55;0.63;;;;;;;11.69;53.11;100788.03;5019147;28;20468;-71
2020/12/24 09:11:24;;;;;;;10.02;1.38;;;;;;;11.71;53.23;100787.13;5022150;28;20056;-70
2020/12/24 09:13:56;;;;;;;3.17;0.50;;;;;;;11.79;53.18;100789.59;5018136;28;20362;-70
2020/12/24 09:16:22;;;;;;;3.70;0.75;;;;;;;11.80;53.19;100796.47;5017950;28;20641;-69
2020/12/24 09:18:47;;;;;;;5.85;1.10;;;;;;;11.78;53.40;100788.72;5025526;28;20029;-69
2020/12/24 09:21:13;;;;;;;4.65;0.55;;;;;;;11.69;53.19;100788.88;5023115;28;20372;-69
2020/12/24 09:23:38;;;;;;;3.65;0.90;;;;;;;12.14;52.20;100793.31;5013747;28;20029;-69
2020/12/24 09:26:04;;;;;;;2.38;0.38;;;;;;;12.20;52.79;100801.81;5026507;28;20501;-69
2020/12/24 09:28:30;;;;;;;3.65;0.43;;;;;;;12.41;51.69;100807.47;5021010;28;20124;-69
2020/12/24 09:31:00;;;;;;;5.07;0.30;;;;;;;12.54;51.75;100800.31;5014234;28;20033;-69
2020/12/24 09:33:27;;;;;;;2.58;0.47;;;;;;;12.46;51.41;100800.47;5028789;28;20087;-69
2020/12/24 09:35:53;;;;;;;5.53;0.57;;;;;;;12.95;49.88;100807.25;5032829;28;20523;-69
2020/12/24 09:38:19;;;;;;;5.15;0.30;;;;;;;13.32;49.84;100814.22;5038446;28;20048;-69
2020/12/24 09:40:44;;;;;;;8.70;0.40;;;;;;;13.27;49.29;100818.63;5025848;28;20040;-69
2020/12/24 09:43:11;;;;;;;13.13;0.73;;;;;;;13.46;48.51;100830.34;5025017;28;20108;-69
2020/12/24 09:45:38;;;;;;;8.43;1.38;;;;;;;13.15;49.03;100834.47;5022744;28;20048;-70
2020/12/24 09:48:05;;;;;;;6.40;0.30;;;;;;;13.84;48.63;100832.88;5025183;28;20446;-70
2020/12/24 09:50:31;;;;;;;5.22;0.50;;;;;;;13.57;48.80;100829.22;5032941;28;20025;-70
2020/12/24 09:52:56;;;;;;;10.30;0.63;;;;;;;13.77;48.31;100839.13;5047047;28;20044;-70
2020/12/24 09:55:22;;;;;;;6.13;0.70;;;;;;;13.71;48.62;100840.16;5016063;28;20516;-70
2020/12/24 09:57:47;;;;;;;10.10;0.60;;;;;;;13.64;49.13;100838.56;5025209;28;20426;-70
2020/12/24 10:00:13;;;;;;;7.15;0.30;;;;;;;13.79;48.97;100847.72;5025989;28;20037;-70
2020/12/24 10:02:38;;;;;;;3.08;0.20;;;;;;;13.77;48.76;100842.56;5032232;28;20057;-70
2020/12/24 10:05:05;;;;;;;5.15;0.20;;;;;;;13.48;49.25;100845.88;5024024;28;20494;-70
2020/12/24 10:07:32;;;;;;;9.52;0.60;;;;;;;13.40;49.67;100859.03;5029113;28;20115;-70
2020/12/24 10:09:57;;;;;;;9.07;1.30;;;;;;;13.53;49.83;100845.75;5033665;28;20028;-70
2020/12/24 10:12:27;;;;;;;7.03;0.65;;;;;;;13.55;49.09;100854.38;5026653;28;20038;-70
2020/12/24 10:14:53;;;;;;;4.70;0.52;;;;;;;13.31;49.05;100861.84;5032578;28;20041;-70
2020/12/24 10:17:23;;;;;;;5.63;0.20;;;;;;;12.88;49.99;100870.50;5007250;28;20510;-70
2020/12/24 10:19:51;;;;;;;1.75;0.32;;;;;;;12.99;49.65;100865.94;5034073;28;20234;-70
2020/12/24 10:22:17;;;;;;;8.23;0.32;;;;;;;13.13;49.53;100857.00;5024726;28;20032;-70
2020/12/24 10:24:43;;;;;;;3.58;1.20;;;;;;;13.12;49.50;100861.34;5033580;28;20076;-70
2020/12/24 10:27:10;;;;;;;2.50;0.20;;;;;;;13.08;49.03;100870.06;5011890;28;20093;-70
2020/12/24 10:29:36;;;;;;;4.55;0.30;;;;;;;13.03;49.03;100865.00;5047012;28;20373;-70
2020/12/24 10:32:01;;;;;;;2.50;0.20;;;;;;;13.08;49.24;100875.28;5034520;28;20058;-70
2020/12/24 10:34:27;;;;;;;3.42;0.10;;;;;;;12.97;49.24;100872.03;5011609;28;20064;-70
2020/12/24 10:36:52;;;;;;;5.75;0.30;;;;;;;13.31;47.98;100882.63;5036780;28;20032;-70
2020/12/24 10:39:18;;;;;;;3.97;0.57;;;;;;;13.15;48.58;100884.66;5025679;28;20048;-70
2020/12/24 10:41:49;;;;;;;5.15;0.30;;;;;;;13.23;48.39;100884.47;5033534;28;20528;-70
2020/12/24 10:44:15;;;;;;;3.63;0.65;;;;;;;13.13;48.02;100882.94;5034748;28;20036;-70
2020/12/24 10:46:40;;;;;;;3.47;0.45;;;;;;;13.08;48.20;100890.84;5032517;28;20029;-70
2020/12/24 10:49:06;;;;;;;12.60;0.55;;;;;;;13.07;47.90;100892.59;5034996;28;20604;-70
2020/12/24 10:51:31;;;;;;;7.82;0.60;;;;;;;12.69;48.92;100892.50;5024245;28;20098;-69
2020/12/24 10:53:57;;;;;;;5.25;0.22;;;;;;;12.83;48.72;100891.34;5028149;28;20095;-70
2020/12/24 10:56:23;;;;;;;5.22;0.25;;;;;;;12.77;49.01;100890.59;5023994;28;20033;-70
2020/12/24 10:58:48;;;;;;;2.10;0.50;;;;;;;12.84;48.92;100885.28;5010492;28;20535;-71
2020/12/24 11:01:16;;;;;;;7.38;0.60;;;;;;;12.99;48.77;100886.69;5025690;28;20034;-70
2020/12/24 11:03:42;;;;;;;8.88;0.88;;;;;;;12.91;48.51;100883.41;5035199;28;20038;-70
2020/12/24 11:06:08;;;;;;;8.68;1.10;;;;;;;13.25;48.48;100877.50;5011236;28;20038;-70
2020/12/24 11:08:34;;;;;;;5.43;0.98;;;;;;;13.36;47.82;100879.91;5024979;28;20103;-70
2020/12/24 11:11:01;;;;;;;7.30;1.23;;;;;;;13.47;48.24;100870.97;5015747;28;20040;-70
2020/12/24 11:13:27;;;;;;;6.30;1.58;;;;;;;13.52;48.04;100867.44;5031035;28;20033;-70
2020/12/24 11:15:53;;;;;;;1.70;0.90;;;;;;;13.57;47.99;100878.56;5036457;28;20028;-70
2020/12/24 11:18:19;;;;;;;6.13;0.68;;;;;;;13.62;48.04;100892.28;5027234;28;20049;-70
2020/12/24 11:20:45;;;;;;;3.17;0.45;;;;;;;13.57;48.43;100894.13;5007398;28;20461;-70
2020/12/24 11:23:10;;;;;;;3.38;0.50;;;;;;;13.25;48.52;100888.75;5027751;28;20037;-70
2020/12/24 11:25:36;;;;;;;2.40;0.63;;;;;;;13.61;48.54;100888.00;5032416;28;20033;-70
2020/12/24 11:28:02;;;;;;;10.20;0.50;;;;;;;13.25;49.07;100887.91;5031144;28;20025;-70